Time;durP1;ratioP1;P1;durP2;ratioP2;P2;SDS_P1;SDS_P2;PMS_P1;PMS_P2;Temp;Humidity;BMP_temperature;BMP_pressure;BME280_temperature;BME280_humidity;BME280_pressure;Samples;Min_cycle;Max_cycle;Signal;HPM_P1;HPM_P2
2023/01/02 00:00:19;;;;;;;;;;;9.10;99.90;;;;;;5072774;28;19932;-92
2023/01/02 00:02:45;;;;;;;;;;;9.10;99.90;;;;;;5090702;28;19946;-92
2023/01/02 00:05:10;;;;;;;;;;;9.10;99.90;;;;;;5092902;28;20001;-92
2023/01/02 00:07:36;;;;;;;;;;;9.10;99.90;;;;;;5096550;28;20026;-91
2023/01/02 00:10:02;;;;;;;;;;;9.20;99.90;;;;;;5081445;28;19957;-93
2023/01/02 00:12:27;;;;;;;;;;;9.20;99.90;;;;;;5100150;28;19923;-91
2023/01/02 00:14:53;;;;;;;;;;;9.20;99.90;;;;;;5099121;28;19959;-92
2023/01/02 00:17:19;;;;;;;;;;;8.80;99.90;;;;;;5116073;28;19923;-92
2023/01/02 00:19:45;;;;;;;;;;;9.40;99.90;;;;;;5081208;28;19938;-91
2023/01/02 00:22:10;;;;;;;;;;;9.30;99.90;;;;;;5101693;28;19928;-91
2023/01/02 00:24:36;;;;;;;;;;;9.30;99.90;;;;;;5083723;28;19999;-91
2023/01/02 00:27:01;;;;;;;;;;;9.30;99.90;;;;;;5099979;28;19924;-93
2023/01/02 00:29:27;;;;;;;;;;;9.40;99.90;;;;;;5080381;28;19924;-91
2023/01/02 00:31:53;;;;;;;;;;;9.40;99.90;;;;;;5082711;28;19924;-92
2023/01/02 00:34:18;;;;;;;;;;;9.40;99.90;;;;;;5085996;28;19932;-92
2023/01/02 00:36:44;;;;;;;;;;;9.40;99.90;;;;;;5095544;27;20413;-91
2023/01/02 00:39:09;;;;;;;;;;;9.50;99.90;;;;;;5084259;28;19950;-91
2023/01/02 00:41:35;;;;;;;;;;;9.50;99.90;;;;;;5117535;27;19975;-91
2023/01/02 00:44:00;;;;;;;;;;;9.50;99.90;;;;;;5142513;27;19999;-91
2023/01/02 00:46:26;;;;;;;;;;;9.50;99.90;;;;;;5116956;28;19931;-90
2023/01/02 00:48:52;;;;;;;;;;;9.50;99.90;;;;;;5124155;27;19924;-91
2023/01/02 00:51:17;;;;;;;;;;;9.50;99.90;;;;;;5116408;28;19924;-92
2023/01/02 00:53:43;;;;;;;;;;;9.60;99.90;;;;;;5104364;28;19962;-92
2023/01/02 00:56:09;;;;;;;;;;;9.60;99.90;;;;;;5083572;28;19935;-92
2023/01/02 00:58:35;;;;;;;;;;;9.60;99.90;;;;;;5099980;28;19923;-91
2023/01/02 01:01:00;;;;;;;;;;;9.60;99.90;;;;;;5121810;28;20007;-92
2023/01/02 01:03:26;;;;;;;;;;;9.60;99.90;;;;;;5081194;28;20303;-92
2023/01/02 01:05:52;;;;;;;;;;;9.70;99.90;;;;;;5105028;28;19924;-92
2023/01/02 01:08:17;;;;;;;;;;;9.70;99.90;;;;;;5080245;28;19924;-92
2023/01/02 01:10:43;;;;;;;;;;;9.70;99.90;;;;;;5101195;28;20011;-91
2023/01/02 01:13:08;;;;;;;;;;;9.70;99.90;;;;;;5119550;28;19931;-91
2023/01/02 01:15:34;;;;;;;;;;;9.70;99.90;;;;;;5103077;28;21261;-91
2023/01/02 01:18:00;;;;;;;;;;;9.70;99.90;;;;;;5103711;28;19969;-91
2023/01/02 01:20:26;;;;;;;;;;;9.70;99.90;;;;;;5118927;28;19977;-92
2023/01/02 01:22:51;;;;;;;;;;;9.70;99.90;;;;;;5101327;28;19931;-92
2023/01/02 01:25:17;;;;;;;;;;;9.80;99.90;;;;;;5119892;28;19923;-91
2023/01/02 01:27:42;;;;;;;;;;;9.70;99.90;;;;;;5100738;28;20528;-91
2023/01/02 01:30:08;;;;;;;;;;;9.80;99.90;;;;;;5082022;28;19924;-92
2023/01/02 01:32:34;;;;;;;;;;;9.80;99.90;;;;;;5119657;28;19934;-91
2023/01/02 01:34:59;;;;;;;;;;;9.80;99.90;;;;;;5086671;28;19924;-91
2023/01/02 01:37:25;;;;;;;;;;;9.80;99.90;;;;;;5085958;28;20794;-92
2023/01/02 01:39:50;;;;;;;;;;;9.80;99.90;;;;;;5104606;28;19924;-91
2023/01/02 01:42:16;;;;;;;;;;;9.80;99.90;;;;;;5099572;28;19928;-92
2023/01/02 01:44:52;;;;;;;;;;;9.80;99.90;;;;;;5082261;28;19938;-92
2023/01/02 01:47:34;;;;;;;;;;;9.80;99.90;;;;;;5096685;27;20035;-91
2023/01/02 01:50:00;;;;;;;;;;;9.80;99.90;;;;;;5103422;28;19977;-91
2023/01/02 01:52:27;;;;;;;;;;;9.90;99.90;;;;;;5105246;28;19931;-91
2023/01/02 01:54:55;;;;;;;;;;;9.90;99.90;;;;;;5133780;28;19975;-91
2023/01/02 01:57:25;;;;;;;;;;;9.90;99.90;;;;;;5117903;28;19987;-91
2023/01/02 01:59:51;;;;;;;;;;;9.90;99.90;;;;;;5119998;28;19924;-90
2023/01/02 02:02:17;;;;;;;;;;;10.00;99.90;;;;;;5119607;28;19927;-92
2023/01/02 02:04:44;;;;;;;;;;;10.00;99.90;;;;;;5081584;28;19924;-91
2023/01/02 02:07:10;;;;;;;;;;;10.00;99.90;;;;;;5114681;28;19924;-90
2023/01/02 02:09:51;;;;;;;;;;;10.00;99.90;;;;;;5100328;28;19924;-91
2023/01/02 02:12:16;;;;;;;;;;;10.00;99.90;;;;;;5116023;28;19928;-90
2023/01/02 02:14:42;;;;;;;;;;;10.00;99.90;;;;;;5102473;28;19990;-91
2023/01/02 02:17:16;;;;;;;;;;;10.00;99.90;;;;;;5082136;28;19924;-91
2023/01/02 02:19:54;;;;;;;;;;;10.00;99.90;;;;;;5118014;28;19973;-92
2023/01/02 02:22:39;;;;;;;;;;;10.00;99.90;;;;;;5102914;28;19935;-91
2023/01/02 02:25:27;;;;;;;;;;;10.00;99.90;;;;;;5119110;28;19924;-93
2023/01/02 02:27:56;;;;;;;;;;;10.10;99.90;;;;;;5120060;28;20022;-91
2023/01/02 02:30:22;;;;;;;;;;;10.00;99.90;;;;;;5099041;28;19963;-91
2023/01/02 02:33:00;;;;;;;;;;;10.10;99.90;;;;;;5116155;28;19975;-92
2023/01/02 02:35:47;;;;;;;;;;;10.00;99.90;;;;;;5103475;28;19931;-91
2023/01/02 02:38:13;;;;;;;;;;;10.10;99.90;;;;;;5100238;28;19924;-91
2023/01/02 02:40:38;;;;;;;;;;;10.10;99.90;;;;;;5097092;28;19923;-92
2023/01/02 02:43:20;;;;;;;;;;;10.10;99.90;;;;;;5096413;28;19935;-92
2023/01/02 02:45:51;;;;;;;;;;;10.10;99.90;;;;;;5107830;28;19931;-91
2023/01/02 02:48:20;;;;;;;;;;;10.10;99.90;;;;;;5096972;28;19935;-91
2023/01/02 02:51:06;;;;;;;;;;;10.10;99.90;;;;;;5116496;28;19931;-91
2023/01/02 02:53:36;;;;;;;;;;;10.10;99.90;;;;;;5100608;28;19927;-91
2023/01/02 02:56:03;;;;;;;;;;;10.20;99.90;;;;;;5120700;27;20446;-92
2023/01/02 02:58:29;;;;;;;;;;;10.20;99.90;;;;;;5101317;28;20545;-92
2023/01/02 03:01:02;;;;;;;;;;;10.10;99.90;;;;;;5102600;28;19923;-90
2023/01/02 03:03:28;;;;;;;;;;;10.20;99.90;;;;;;5091994;28;20492;-90
2023/01/02 03:06:12;;;;;;;;;;;10.20;99.90;;;;;;5090547;28;19923;-90
2023/01/02 03:08:46;;;;;;;;;;;10.20;99.90;;;;;;5127769;28;19980;-91
2023/01/02 03:11:11;;;;;;;;;;;10.20;99.90;;;;;;5118171;28;19987;-92
2023/01/02 03:13:49;;;;;;;;;;;10.20;99.90;;;;;;5112940;28;19924;-90
2023/01/02 03:16:28;;;;;;;;;;;10.20;99.90;;;;;;5101003;28;20450;-91
2023/01/02 03:18:54;;;;;;;;;;;10.20;99.90;;;;;;5102392;28;19978;-91
2023/01/02 03:21:25;;;;;;;;;;;10.20;99.90;;;;;;5099345;28;19931;-91
2023/01/02 03:23:52;;;;;;;;;;;10.20;99.90;;;;;;5117353;28;19937;-91
2023/01/02 03:26:20;;;;;;;;;;;10.20;99.90;;;;;;5092059;28;19923;-92
2023/01/02 03:28:47;;;;;;;;;;;10.20;99.90;;;;;;5101141;28;19930;-91
2023/01/02 03:31:17;;;;;;;;;;;10.20;99.90;;;;;;5105244;27;19924;-91
2023/01/02 03:33:49;;;;;;;;;;;10.20;99.90;;;;;;5120286;28;19931;-90
2023/01/02 03:36:16;;;;;;;;;;;10.20;99.90;;;;;;5102216;28;19953;-92
2023/01/02 03:38:45;;;;;;;;;;;10.20;99.90;;;;;;5134739;27;19939;-91
2023/01/02 03:41:17;;;;;;;;;;;10.30;99.90;;;;;;5121191;28;19924;-91
2023/01/02 03:43:43;;;;;;;;;;;10.30;99.90;;;;;;5104872;28;19923;-92
2023/01/02 03:46:21;;;;;;;;;;;10.30;99.90;;;;;;5120534;28;19968;-91
2023/01/02 03:48:50;;;;;;;;;;;10.30;99.90;;;;;;5103839;28;19935;-91
2023/01/02 03:51:15;;;;;;;;;;;10.30;99.90;;;;;;5116140;28;19931;-91
2023/01/02 03:53:41;;;;;;;;;;;10.30;99.90;;;;;;5121522;28;19923;-90
2023/01/02 03:56:15;;;;;;;;;;;10.30;99.90;;;;;;5104105;28;19924;-91
2023/01/02 03:58:55;;;;;;;;;;;10.30;99.90;;;;;;5103908;28;19935;-90
2023/01/02 04:01:28;;;;;;;;;;;10.30;99.90;;;;;;5137277;28;19994;-91
2023/01/02 04:04:02;;;;;;;;;;;10.30;99.90;;;;;;5116074;28;20385;-91
2023/01/02 04:06:31;;;;;;;;;;;10.30;99.90;;;;;;5109581;28;19923;-91
2023/01/02 04:09:00;;;;;;;;;;;10.30;99.90;;;;;;5100443;28;19967;-91
2023/01/02 04:11:26;;;;;;;;;;;10.30;99.90;;;;;;5118588;28;19924;-92
2023/01/02 04:13:58;;;;;;;;;;;10.30;99.90;;;;;;5122684;28;20018;-90
2023/01/02 04:16:26;;;;;;;;;;;10.40;99.90;;;;;;5103877;28;19936;-91
2023/01/02 04:19:12;;;;;;;;;;;10.30;99.90;;;;;;5106736;28;20167;-92
2023/01/02 04:21:39;;;;;;;;;;;10.40;99.90;;;;;;5101896;28;19922;-92
2023/01/02 04:24:04;;;;;;;;;;;10.40;99.90;;;;;;5118133;28;19920;-91
2023/01/02 04:26:32;;;;;;;;;;;10.40;99.90;;;;;;5131497;28;19935;-90
2023/01/02 04:28:58;;;;;;;;;;;10.40;99.90;;;;;;5107231;28;19924;-91
2023/01/02 04:31:27;;;;;;;;;;;10.40;99.90;;;;;;5105493;28;19934;-92
2023/01/02 04:33:57;;;;;;;;;;;10.40;99.90;;;;;;5120362;28;19966;-90
2023/01/02 04:36:23;;;;;;;;;;;10.40;99.90;;;;;;5114852;28;20033;-90
2023/01/02 04:38:49;;;;;;;;;;;10.40;99.90;;;;;;5121521;28;20088;-92
2023/01/02 04:41:18;;;;;;;;;;;10.40;99.90;;;;;;5104866;28;20008;-92
2023/01/02 04:43:43;;;;;;;;;;;10.40;99.90;;;;;;5118481;28;19938;-91
2023/01/02 04:46:09;;;;;;;;;;;10.40;99.90;;;;;;5083201;28;19951;-91
2023/01/02 04:48:34;;;;;;;;;;;10.50;99.90;;;;;;5120850;28;19924;-91
2023/01/02 04:51:00;;;;;;;;;;;10.40;99.90;;;;;;5083257;28;19924;-91
2023/01/02 04:53:26;;;;;;;;;;;10.50;99.90;;;;;;5106802;27;19942;-92
2023/01/02 04:55:55;;;;;;;;;;;10.50;99.90;;;;;;5107902;27;19966;-92
2023/01/02 04:58:21;;;;;;;;;;;10.50;99.90;;;;;;5083830;28;19983;-90
2023/01/02 05:00:46;;;;;;;;;;;10.50;99.90;;;;;;5072917;28;20044;-91
2023/01/02 05:03:12;;;;;;;;;;;10.50;99.90;;;;;;5075297;28;20017;-90
2023/01/02 05:05:38;;;;;;;;;;;10.50;99.90;;;;;;5101547;28;19924;-91
2023/01/02 05:08:03;;;;;;;;;;;10.50;99.90;;;;;;5083885;28;19931;-90
2023/01/02 05:16:29;;;;;;;;;;;10.50;99.90;;;;;;5183008;23;19974;-87
2023/01/02 05:18:58;;;;;;;;;;;10.50;99.90;;;;;;4930832;29;19926;-87
2023/01/02 05:24:07;;;;;;;;;;;10.50;99.90;;;;;;4939857;29;19934;-86
2023/01/02 05:26:33;;;;;;;;;;;10.50;99.90;;;;;;4941898;29;19926;-86
2023/01/02 05:28:59;;;;;;;;;;;10.50;99.90;;;;;;4941506;29;19931;-87
2023/01/02 05:31:25;;;;;;;;;;;10.50;99.90;;;;;;4940930;29;19933;-86
2023/01/02 05:33:55;;;;;;;;;;;10.50;99.90;;;;;;4941146;29;19978;-86
2023/01/02 05:36:21;;;;;;;;;;;10.50;99.90;;;;;;4941473;29;19926;-87
2023/01/02 05:38:47;;;;;;;;;;;10.50;99.90;;;;;;4941185;29;19934;-86
2023/01/02 05:41:13;;;;;;;;;;;10.50;99.90;;;;;;4957557;29;20336;-86
2023/01/02 05:43:39;;;;;;;;;;;10.50;99.90;;;;;;4924598;29;20025;-86
2023/01/02 05:46:12;;;;;;;;;;;10.50;99.90;;;;;;4940471;29;20022;-87
2023/01/02 05:48:38;;;;;;;;;;;10.60;99.90;;;;;;4940708;29;19950;-87
2023/01/02 05:51:04;;;;;;;;;;;10.60;99.90;;;;;;4924345;29;20374;-87
2023/01/02 05:53:30;;;;;;;;;;;10.60;99.90;;;;;;4940874;29;20377;-87
2023/01/02 05:56:02;;;;;;;;;;;10.60;99.90;;;;;;4941252;29;20073;-86
2023/01/02 05:58:29;;;;;;;;;;;10.60;99.90;;;;;;4940785;29;20379;-87
2023/01/02 06:00:55;;;;;;;;;;;10.60;99.90;;;;;;4940420;29;19926;-87
2023/01/02 06:03:20;;;;;;;;;;;10.60;99.90;;;;;;4940393;29;20285;-86
2023/01/02 06:05:46;;;;;;;;;;;10.60;99.90;;;;;;4924683;29;19926;-86
2023/01/02 06:08:11;;;;;;;;;;;10.70;99.90;;;;;;4939946;29;19927;-86
2023/01/02 06:10:37;;;;;;;;;;;10.70;99.90;;;;;;4924915;29;20017;-87
2023/01/02 06:13:02;;;;;;;;;;;10.70;99.90;;;;;;4940862;29;19926;-87
2023/01/02 06:15:28;;;;;;;;;;;10.70;99.90;;;;;;4939990;29;19926;-87
2023/01/02 06:17:53;;;;;;;;;;;10.70;99.90;;;;;;4940373;29;19981;-86
2023/01/02 06:20:19;;;;;;;;;;;10.70;99.90;;;;;;4939986;29;19938;-87
2023/01/02 06:22:44;;;;;;;;;;;10.70;99.90;;;;;;4939880;29;19933;-86
2023/01/02 06:25:10;;;;;;;;;;;10.70;99.90;;;;;;4939609;29;19926;-87
2023/01/02 06:27:36;;;;;;;;;;;10.70;99.90;;;;;;4924127;29;19927;-86
2023/01/02 06:30:01;;;;;;;;;;;10.70;99.90;;;;;;4924780;28;19930;-87
2023/01/02 06:32:27;;;;;;;;;;;10.70;99.90;;;;;;4940033;29;20290;-87
2023/01/02 06:34:52;;;;;;;;;;;10.70;99.90;;;;;;4940219;29;19934;-87
2023/01/02 06:37:18;;;;;;;;;;;10.70;99.90;;;;;;4939527;29;19927;-87
2023/01/02 06:39:43;;;;;;;;;;;10.70;99.90;;;;;;4939937;29;19931;-87
2023/01/02 06:42:09;;;;;;;;;;;10.70;99.90;;;;;;4924794;29;20258;-87
2023/01/02 06:44:35;;;;;;;;;;;10.60;99.90;;;;;;4939522;29;20282;-87
2023/01/02 06:47:00;;;;;;;;;;;10.60;99.90;;;;;;4923779;29;19991;-87
2023/01/02 06:49:26;;;;;;;;;;;10.60;99.90;;;;;;4923628;29;19934;-87
2023/01/02 06:51:51;;;;;;;;;;;10.60;99.90;;;;;;4923718;29;20338;-87
2023/01/02 06:54:17;;;;;;;;;;;10.60;99.90;;;;;;4939540;29;19927;-87
2023/01/02 06:56:42;;;;;;;;;;;10.50;99.90;;;;;;4923325;29;19935;-87
2023/01/02 06:59:08;;;;;;;;;;;10.50;99.90;;;;;;4939486;29;19927;-86
2023/01/02 07:01:34;;;;;;;;;;;10.50;99.90;;;;;;4939279;29;20374;-86
2023/01/02 07:03:59;;;;;;;;;;;10.50;99.90;;;;;;4939149;29;19945;-86
2023/01/02 07:06:26;;;;;;;;;;;10.50;99.90;;;;;;4939291;29;19927;-87
2023/01/02 07:08:52;;;;;;;;;;;10.40;99.90;;;;;;4939362;29;19933;-87
2023/01/02 07:11:19;;;;;;;;;;;10.40;99.90;;;;;;4939650;29;19927;-87
2023/01/02 07:13:46;;;;;;;;;;;10.30;99.90;;;;;;4956027;29;19933;-85
2023/01/02 07:16:12;;;;;;;;;;;10.20;99.90;;;;;;4939121;29;19986;-87
2023/01/02 07:18:38;;;;;;;;;;;10.20;99.90;;;;;;4939547;29;19926;-88
2023/01/02 07:21:04;;;;;;;;;;;10.10;99.90;;;;;;4939857;29;19949;-87
2023/01/02 07:23:30;;;;;;;;;;;10.00;99.90;;;;;;4939555;29;20277;-87
2023/01/02 07:26:00;;;;;;;;;;;10.00;99.90;;;;;;4939847;29;19926;-87
2023/01/02 07:28:26;;;;;;;;;;;10.00;99.90;;;;;;4938807;29;20374;-87
2023/01/02 07:30:55;;;;;;;;;;;9.80;99.90;;;;;;4939634;29;19977;-87
2023/01/02 07:33:20;;;;;;;;;;;9.70;99.90;;;;;;4939674;29;20350;-87
2023/01/02 07:35:46;;;;;;;;;;;9.50;99.90;;;;;;4923079;29;19927;-87
2023/01/02 07:38:11;;;;;;;;;;;9.50;99.90;;;;;;4939084;29;20005;-86
2023/01/02 07:40:37;;;;;;;;;;;9.40;99.90;;;;;;4922964;29;19933;-87
2023/01/02 07:43:02;;;;;;;;;;;9.30;99.90;;;;;;4940090;29;19933;-87
2023/01/02 07:45:28;;;;;;;;;;;9.30;99.90;;;;;;4942674;29;19927;-87
2023/01/02 07:47:54;;;;;;;;;;;9.10;99.90;;;;;;4912145;29;19933;-87
2023/01/02 07:50:19;;;;;;;;;;;9.00;99.90;;;;;;4926803;29;19930;-87
2023/01/02 07:52:45;;;;;;;;;;;9.00;99.90;;;;;;4942960;29;19933;-87
2023/01/02 07:55:10;;;;;;;;;;;8.80;99.90;;;;;;4927517;29;19927;-86
2023/01/02 07:57:36;;;;;;;;;;;8.70;99.90;;;;;;4926891;29;20282;-89
2023/01/02 08:00:03;;;;;;;;;;;8.60;99.90;;;;;;4926790;29;19985;-87
2023/01/02 08:02:28;;;;;;;;;;;8.60;99.90;;;;;;4943242;29;19981;-86
2023/01/02 08:04:54;;;;;;;;;;;8.50;99.90;;;;;;4942196;29;19927;-87
2023/01/02 08:07:21;;;;;;;;;;;8.40;99.90;;;;;;4943335;29;19930;-87
2023/01/02 08:09:47;;;;;;;;;;;8.40;99.90;;;;;;4942484;29;19926;-87
2023/01/02 08:12:13;;;;;;;;;;;8.40;99.90;;;;;;4943175;29;20381;-87
2023/01/02 08:14:38;;;;;;;;;;;8.30;99.90;;;;;;4926422;29;19949;-87
2023/01/02 08:17:04;;;;;;;;;;;8.30;99.90;;;;;;4942008;29;19927;-87
2023/01/02 08:19:29;;;;;;;;;;;8.30;99.90;;;;;;4942071;29;19930;-87
2023/01/02 08:21:55;;;;;;;;;;;8.20;99.90;;;;;;4927118;29;19934;-87
2023/01/02 08:24:20;;;;;;;;;;;8.20;99.90;;;;;;4926481;29;20334;-87
2023/01/02 08:26:46;;;;;;;;;;;8.20;99.90;;;;;;4942026;29;19974;-88
2023/01/02 08:29:11;;;;;;;;;;;8.20;99.90;;;;;;4942292;29;19981;-87
2023/01/02 08:31:37;;;;;;;;;;;8.20;99.90;;;;;;4926539;29;19934;-89
2023/01/02 08:34:03;;;;;;;;;;;8.20;99.90;;;;;;4910422;29;20212;-88
2023/01/02 08:36:28;;;;;;;;;;;8.10;99.90;;;;;;4942352;29;20020;-91
2023/01/02 08:38:54;;;;;;;;;;;8.00;99.90;;;;;;4941943;29;20013;-89
2023/01/02 08:41:31;;;;;;;;;;;8.00;99.90;;;;;;4925972;29;20308;-88
2023/01/02 08:43:57;;;;;;;;;;;8.10;99.90;;;;;;4941484;29;20298;-89
2023/01/02 08:46:22;;;;;;;;;;;8.10;99.90;;;;;;4941810;29;19927;-90
2023/01/02 08:48:48;;;;;;;;;;;8.10;99.90;;;;;;4941845;29;20021;-91
2023/01/02 08:51:13;;;;;;;;;;;8.10;99.90;;;;;;4942490;29;19927;-92
2023/01/02 08:53:39;;;;;;;;;;;8.00;99.90;;;;;;4926212;29;19993;-88
2023/01/02 08:56:24;;;;;;;;;;;8.00;99.90;;;;;;4925175;29;19978;-88
2023/01/02 08:58:56;;;;;;;;;;;8.00;99.90;;;;;;4941211;29;19938;-89
2023/01/02 09:01:25;;;;;;;;;;;8.00;99.90;;;;;;4942181;29;20373;-88
2023/01/02 09:03:51;;;;;;;;;;;8.00;99.90;;;;;;4925642;29;19926;-88
2023/01/02 09:06:17;;;;;;;;;;;8.00;99.90;;;;;;4942033;29;19978;-90
2023/01/02 09:08:43;;;;;;;;;;;8.00;99.90;;;;;;4941668;29;19933;-89
2023/01/02 09:11:09;;;;;;;;;;;7.90;99.90;;;;;;4941031;29;19927;-89
2023/01/02 09:13:35;;;;;;;;;;;7.90;99.90;;;;;;4941527;29;19926;-89
2023/01/02 09:16:00;;;;;;;;;;;7.90;99.90;;;;;;4922120;29;19994;-89
2023/01/02 09:18:26;;;;;;;;;;;7.90;99.90;;;;;;4922181;29;19927;-89
2023/01/02 09:20:52;;;;;;;;;;;7.90;99.90;;;;;;4921737;29;19934;-89
2023/01/02 09:23:17;;;;;;;;;;;7.90;99.90;;;;;;4937527;29;20422;-88
2023/01/02 09:25:43;;;;;;;;;;;8.00;99.90;;;;;;4938168;29;19927;-87
2023/01/02 09:28:08;;;;;;;;;;;8.20;99.90;;;;;;4938069;29;19927;-91
2023/01/02 09:30:34;;;;;;;;;;;8.00;99.90;;;;;;4921647;29;19947;-92
2023/01/02 09:33:00;;;;;;;;;;;8.00;99.90;;;;;;4921235;29;20389;-89
2023/01/02 09:35:25;;;;;;;;;;;8.00;99.90;;;;;;4937393;29;19927;-92
2023/01/02 09:37:51;;;;;;;;;;;8.10;99.90;;;;;;4937501;29;19978;-90
2023/01/02 09:40:16;;;;;;;;;;;8.10;99.90;;;;;;4937630;29;19974;-90
2023/01/02 09:42:43;;;;;;;;;;;8.10;99.90;;;;;;4937262;29;19927;-89
2023/01/02 09:45:08;;;;;;;;;;;8.00;99.90;;;;;;4937242;29;19933;-89
2023/01/02 09:47:34;;;;;;;;;;;8.00;99.90;;;;;;4922252;29;20028;-90
2023/01/02 09:50:02;;;;;;;;;;;8.00;99.90;;;;;;4938651;29;19949;-91
2023/01/02 09:52:31;;;;;;;;;;;8.00;99.90;;;;;;4938470;29;19988;-93
2023/01/02 09:54:57;;;;;;;;;;;8.00;99.90;;;;;;4937286;29;20022;-89
2023/01/02 09:57:22;;;;;;;;;;;8.00;99.90;;;;;;4937464;29;19989;-87
2023/01/02 09:59:51;;;;;;;;;;;8.00;99.90;;;;;;4936968;29;19927;-91
2023/01/02 10:02:23;;;;;;;;;;;8.00;99.90;;;;;;4937600;29;20334;-91
2023/01/02 10:04:48;;;;;;;;;;;8.00;99.90;;;;;;4938138;29;20018;-91
2023/01/02 10:07:19;;;;;;;;;;;8.10;99.90;;;;;;4939973;29;19981;-91
2023/01/02 10:09:51;;;;;;;;;;;8.10;99.90;;;;;;4941255;29;20374;-90
2023/01/02 10:12:31;;;;;;;;;;;8.10;99.90;;;;;;4947267;29;19926;-91
2023/01/02 10:15:01;;;;;;;;;;;8.10;99.90;;;;;;4945968;29;19927;-90
2023/01/02 10:17:28;;;;;;;;;;;8.10;99.90;;;;;;4945074;29;20369;-90
2023/01/02 10:20:02;;;;;;;;;;;8.10;99.90;;;;;;4944729;29;19926;-90
2023/01/02 10:22:32;;;;;;;;;;;8.10;99.90;;;;;;4940338;29;19926;-91
2023/01/02 10:25:18;;;;;;;;;;;8.10;99.90;;;;;;4939899;29;19933;-90
2023/01/02 10:27:46;;;;;;;;;;;8.10;99.90;;;;;;4940144;29;20018;-90
2023/01/02 10:30:19;;;;;;;;;;;8.10;99.90;;;;;;4940033;29;20392;-91
2023/01/02 10:33:08;;;;;;;;;;;8.10;99.90;;;;;;4940799;29;20270;-93
2023/01/02 10:35:33;;;;;;;;;;;8.10;99.90;;;;;;4939807;29;19999;-91
2023/01/02 10:37:59;;;;;;;;;;;8.10;99.90;;;;;;4939795;29;20007;-89
2023/01/02 10:40:25;;;;;;;;;;;8.10;99.90;;;;;;4939762;29;19927;-91
2023/01/02 10:42:53;;;;;;;;;;;8.10;99.90;;;;;;4923743;29;19926;-91
2023/01/02 10:45:19;;;;;;;;;;;8.10;99.90;;;;;;4939785;29;19927;-92
2023/01/02 10:47:45;;;;;;;;;;;8.20;99.90;;;;;;4923813;29;20298;-90
2023/01/02 10:50:16;;;;;;;;;;;8.10;99.90;;;;;;4939712;29;19933;-90
2023/01/02 10:52:47;;;;;;;;;;;8.10;99.90;;;;;;4939286;29;19927;-92
2023/01/02 10:55:27;;;;;;;;;;;8.10;99.90;;;;;;4939345;29;19934;-92
2023/01/02 10:57:52;;;;;;;;;;;8.60;99.90;;;;;;4945716;29;19976;-91
2023/01/02 11:00:18;;;;;;;;;;;8.10;99.90;;;;;;4930881;29;19926;-90
2023/01/02 11:02:49;;;;;;;;;;;8.20;99.90;;;;;;4947959;29;19927;-91
2023/01/02 11:05:19;;;;;;;;;;;8.30;99.90;;;;;;4941908;29;19926;-91
2023/01/02 11:07:46;;;;;;;;;;;8.40;99.90;;;;;;4939655;29;19926;-93
2023/01/02 11:10:21;;;;;;;;;;;8.40;99.90;;;;;;4939727;29;19927;-91
2023/01/02 11:12:47;;;;;;;;;;;8.50;99.90;;;;;;4939251;29;19980;-92
2023/01/02 11:15:13;;;;;;;;;;;8.50;99.90;;;;;;4938873;29;19937;-90
2023/01/02 11:17:39;;;;;;;;;;;8.50;99.90;;;;;;4938434;29;19939;-93
2023/01/02 11:20:17;;;;;;;;;;;8.60;99.90;;;;;;4939221;29;19927;-91
2023/01/02 11:22:42;;;;;;;;;;;8.60;99.90;;;;;;4938580;29;19934;-91
2023/01/02 11:25:16;;;;;;;;;;;8.70;99.90;;;;;;4938971;29;19926;-90
2023/01/02 11:27:43;;;;;;;;;;;8.70;99.90;;;;;;4939458;29;19931;-93
2023/01/02 11:30:26;;;;;;;;;;;8.70;99.90;;;;;;4939224;29;20013;-90
2023/01/02 11:33:10;;;;;;;;;;;8.70;99.90;;;;;;4939263;29;20380;-91
2023/01/02 11:35:38;;;;;;;;;;;8.70;99.90;;;;;;4938997;29;19933;-90
2023/01/02 11:38:11;;;;;;;;;;;8.70;99.90;;;;;;4939112;29;19927;-89
2023/01/02 11:40:36;;;;;;;;;;;8.70;99.90;;;;;;4941018;29;20028;-90
2023/01/02 11:45:48;;;;;;;;;;;8.70;99.90;;;;;;4939959;29;19926;-91
2023/01/02 11:48:19;;;;;;;;;;;8.60;99.90;;;;;;4925250;29;19927;-91
2023/01/02 11:50:44;;;;;;;;;;;8.50;99.90;;;;;;4949592;29;19926;-91
2023/01/02 11:53:10;;;;;;;;;;;8.50;99.90;;;;;;4952926;29;20065;-91
2023/01/02 11:55:35;;;;;;;;;;;8.60;99.90;;;;;;4958648;28;19914;-88
2023/01/02 11:58:07;;;;;;;;;;;8.60;99.90;;;;;;4962029;28;19915;-91
2023/01/02 12:00:34;;;;;;;;;;;8.50;99.90;;;;;;4962772;28;19911;-90
2023/01/02 12:03:04;;;;;;;;;;;8.50;99.90;;;;;;4962522;28;19927;-91
2023/01/02 12:05:48;;;;;;;;;;;8.50;99.90;;;;;;4962696;28;19945;-90
2023/01/02 12:08:26;;;;;;;;;;;8.50;99.90;;;;;;4963002;28;19931;-90
2023/01/02 12:11:24;;;;;;;;;;;8.50;99.90;;;;;;4956851;28;20029;-92
2023/01/02 12:14:06;;;;;;;;;;;8.60;99.90;;;;;;4914014;29;19931;-93
2023/01/02 12:16:36;;;;;;;;;;;8.60;99.90;;;;;;4940899;29;20013;-90
2023/01/02 12:19:27;;;;;;;;;;;8.60;99.90;;;;;;4941083;29;19930;-91
2023/01/02 12:22:01;;;;;;;;;;;8.60;99.90;;;;;;4944181;29;19926;-89
2023/01/02 12:24:46;;;;;;;;;;;8.60;99.90;;;;;;4954797;28;19974;-91
2023/01/02 12:27:30;;;;;;;;;;;8.70;99.90;;;;;;4960789;28;19983;-92
2023/01/02 12:29:59;;;;;;;;;;;8.70;99.90;;;;;;4962288;29;19936;-90
2023/01/02 12:32:24;;;;;;;;;;;8.70;99.90;;;;;;4963820;28;19915;-88
2023/01/02 12:34:50;;;;;;;;;;;8.70;99.90;;;;;;4961834;29;19940;-88
2023/01/02 12:37:34;;;;;;;;;;;8.60;99.90;;;;;;4958497;29;19930;-91
2023/01/02 12:39:59;;;;;;;;;;;8.60;99.90;;;;;;4942250;29;20330;-92
2023/01/02 12:42:34;;;;;;;;;;;8.60;99.90;;;;;;4941783;29;19927;-91
2023/01/02 12:45:00;;;;;;;;;;;8.70;99.90;;;;;;4960476;29;19977;-92
2023/01/02 12:47:31;;;;;;;;;;;8.70;99.90;;;;;;4932562;29;19927;-92
2023/01/02 12:50:16;;;;;;;;;;;8.70;99.90;;;;;;4943764;29;19934;-92
2023/01/02 12:53:04;;;;;;;;;;;8.70;99.90;;;;;;4947563;29;19926;-92
2023/01/02 12:55:33;;;;;;;;;;;8.70;99.90;;;;;;4945000;29;19926;-93
2023/01/02 12:58:05;;;;;;;;;;;8.70;99.90;;;;;;4942169;29;20014;-91
2023/01/02 13:00:42;;;;;;;;;;;8.70;99.90;;;;;;4942091;29;19981;-94
2023/01/02 13:03:26;;;;;;;;;;;8.70;99.90;;;;;;4941615;29;19977;-94
2023/01/02 13:05:54;;;;;;;;;;;8.70;99.90;;;;;;4941347;29;19958;-92
2023/01/02 13:08:24;;;;;;;;;;;8.70;99.90;;;;;;4941725;29;19930;-93
2023/01/02 13:10:50;;;;;;;;;;;8.70;99.90;;;;;;4942154;29;19930;-94
2023/01/02 13:13:15;;;;;;;;;;;8.70;99.90;;;;;;4941326;29;20430;-89
2023/01/02 13:15:44;;;;;;;;;;;8.80;99.90;;;;;;4941627;29;20276;-94
2023/01/02 13:18:30;;;;;;;;;;;8.80;99.90;;;;;;4942862;29;19972;-95
2023/01/02 13:21:08;;;;;;;;;;;8.80;99.90;;;;;;4943713;29;19930;-92
2023/01/02 13:23:45;;;;;;;;;;;8.80;99.90;;;;;;4925732;29;19927;-91
2023/01/02 13:26:19;;;;;;;;;;;8.80;99.90;;;;;;4941284;29;19926;-91
2023/01/02 13:29:05;;;;;;;;;;;8.80;99.90;;;;;;4942006;29;19935;-90
2023/01/02 13:31:32;;;;;;;;;;;8.80;99.90;;;;;;4941077;29;19927;-94
2023/01/02 13:34:06;;;;;;;;;;;8.80;99.90;;;;;;4941511;29;19926;-92
2023/01/02 13:36:36;;;;;;;;;;;8.80;99.90;;;;;;4941300;29;20351;-91
2023/01/02 13:39:11;;;;;;;;;;;8.80;99.90;;;;;;4941240;29;20369;-89
2023/01/02 13:42:57;;;;;;;;;;;8.80;99.90;;;;;;4943661;29;19926;-90
2023/01/02 13:44:35;;;;;;;;;;;8.90;99.90;;;;;;4940330;29;19949;-90
2023/01/02 13:47:09;;;;;;;;;;;8.90;99.90;;;;;;4925632;29;19981;-90
2023/01/02 13:49:34;;;;;;;;;;;8.80;99.90;;;;;;4940637;29;20312;-91
2023/01/02 13:52:00;;;;;;;;;;;8.90;99.90;;;;;;4940758;29;19938;-92
2023/01/02 13:54:33;;;;;;;;;;;8.80;99.90;;;;;;4924977;29;20061;-92
2023/01/02 13:57:16;;;;;;;;;;;8.80;99.90;;;;;;4941058;29;19930;-92
2023/01/02 14:00:23;;;;;;;;;;;8.80;99.90;;;;;;4940503;29;19933;-91
2023/01/02 14:03:06;;;;;;;;;;;8.80;99.90;;;;;;4901617;29;19927;-90
2023/01/02 14:05:50;;;;;;;;;;;8.80;99.90;;;;;;4903042;29;19928;-91
2023/01/02 14:08:22;;;;;;;;;;;8.80;99.90;;;;;;4929491;29;20367;-89
2023/01/02 14:10:48;;;;;;;;;;;8.70;99.90;;;;;;4940545;29;19926;-92
2023/01/02 14:13:21;;;;;;;;;;;8.70;99.90;;;;;;4940344;29;20013;-92
2023/01/02 14:16:07;;;;;;;;;;;8.70;99.90;;;;;;4940802;29;20013;-92
2023/01/02 14:18:32;;;;;;;;;;;8.70;99.90;;;;;;4941660;29;19977;-93
2023/01/02 14:21:00;;;;;;;;;;;8.00;99.90;;;;;;4941692;29;19926;-92
2023/01/02 14:23:32;;;;;;;;;;;8.60;99.90;;;;;;4924661;29;19973;-88
2023/01/02 14:25:58;;;;;;;;;;;8.70;99.90;;;;;;4941246;29;19927;-90
2023/01/02 14:28:26;;;;;;;;;;;8.70;99.90;;;;;;4939699;29;19933;-89
2023/01/02 14:30:52;;;;;;;;;;;8.70;99.90;;;;;;4939682;29;19927;-88
2023/01/02 14:33:24;;;;;;;;;;;8.70;99.90;;;;;;4940536;29;20373;-89
2023/01/02 14:35:56;;;;;;;;;;;8.70;99.90;;;;;;4939701;29;20470;-88
2023/01/02 14:38:23;;;;;;;;;;;8.60;99.90;;;;;;4940606;29;19973;-91
2023/01/02 14:40:50;;;;;;;;;;;8.60;99.90;;;;;;4939750;29;20013;-92
2023/01/02 14:43:31;;;;;;;;;;;8.60;99.90;;;;;;4939812;29;19927;-91
2023/01/02 14:46:02;;;;;;;;;;;8.60;99.90;;;;;;4940405;29;19926;-91
2023/01/02 14:48:47;;;;;;;;;;;8.60;99.90;;;;;;4940126;29;19942;-91